createdAt,value
2022-10-23T00:02:54.084Z,13.75
2022-10-23T00:07:58.285Z,13.72
2022-10-23T00:12:59.239Z,13.53
2022-10-23T00:17:59.879Z,13.56
2022-10-23T00:22:57.255Z,13.86
2022-10-23T00:27:57.900Z,13.51
2022-10-23T00:32:57.501Z,13.45
2022-10-23T00:37:56.526Z,13.23
2022-10-23T00:42:56.795Z,13.44
2022-10-23T00:47:57.778Z,13.40
2022-10-23T00:52:59.996Z,13.28
2022-10-23T00:58:01.889Z,13.41
2022-10-23T01:03:04.443Z,13.71
2022-10-23T01:08:08.105Z,13.45
2022-10-23T01:13:09.076Z,13.63
2022-10-23T01:18:12.982Z,13.52
2022-10-23T01:24:06.687Z,13.56
2022-10-23T01:29:13.643Z,13.18
2022-10-23T01:34:20.838Z,13.24
2022-10-23T01:39:35.514Z,12.69
2022-10-23T01:44:41.935Z,12.84
2022-10-23T01:49:45.480Z,12.84
2022-10-23T01:54:44.995Z,12.89
2022-10-23T01:59:47.386Z,12.66
2022-10-23T02:05:17.853Z,13.01
2022-10-23T02:10:17.589Z,13.08
2022-10-23T02:15:19.344Z,13.72
2022-10-23T02:20:46.142Z,13.63
2022-10-23T02:25:52.530Z,13.85
2022-10-23T02:30:54.131Z,13.70
2022-10-23T02:35:53.580Z,13.76
2022-10-23T02:40:53.907Z,14.00
2022-10-23T02:46:26.032Z,14.09
2022-10-23T02:52:01.566Z,13.54
2022-10-23T02:57:05.711Z,13.93
2022-10-23T03:02:11.493Z,14.09
2022-10-23T03:07:16.909Z,13.78
2022-10-23T03:12:15.637Z,13.92
2022-10-23T03:17:14.739Z,14.01
2022-10-23T03:22:21.229Z,14.10
2022-10-23T03:27:19.064Z,14.31
2022-10-23T03:32:18.138Z,14.27
2022-10-23T03:37:20.200Z,14.46
2022-10-23T03:42:21.507Z,14.51
2022-10-23T03:47:23.237Z,14.62
2022-10-23T03:57:30.422Z,15.01
2022-10-23T04:02:29.298Z,14.71
2022-10-23T04:07:27.997Z,14.81
2022-10-23T04:12:30.067Z,14.90
2022-10-23T04:17:31.989Z,15.20
2022-10-23T04:22:34.240Z,15.08
2022-10-23T04:27:34.591Z,15.19
2022-10-23T04:32:35.377Z,15.20
2022-10-23T04:37:36.640Z,14.91
2022-10-23T04:42:35.718Z,15.08
2022-10-23T04:47:37.098Z,15.17
2022-10-23T04:52:36.904Z,15.25
2022-10-23T04:58:13.736Z,15.37
2022-10-23T05:03:15.512Z,15.17
2022-10-23T05:08:18.046Z,15.20
2022-10-23T05:13:36.672Z,15.00
2022-10-23T05:18:44.912Z,15.01
2022-10-23T05:23:47.270Z,15.21
2022-10-23T05:28:57.359Z,15.09
2022-10-23T05:33:57.363Z,15.09
2022-10-23T05:38:59.216Z,15.29
2022-10-23T05:43:58.359Z,15.44
2022-10-23T05:49:18.568Z,15.14
2022-10-23T05:54:38.849Z,15.14
2022-10-23T06:00:13.164Z,15.38
2022-10-23T06:05:22.463Z,15.65
2022-10-23T06:10:36.917Z,15.72
2022-10-23T06:15:42.270Z,15.56
2022-10-23T06:20:45.310Z,15.56
2022-10-23T06:25:56.676Z,15.95
2022-10-23T06:31:14.051Z,15.90
2022-10-23T06:36:14.814Z,15.95
2022-10-23T06:41:37.437Z,16.07
2022-10-23T06:46:40.731Z,16.30
2022-10-23T06:52:46.445Z,16.65
2022-10-23T06:57:50.151Z,16.49
2022-10-23T07:02:50.235Z,16.87
2022-10-23T07:07:51.227Z,16.98
2022-10-23T07:13:00.919Z,17.25
2022-10-23T07:18:14.739Z,17.30
2022-10-23T07:23:46.616Z,17.42
2022-10-23T07:28:48.174Z,17.81
2022-10-23T07:33:52.113Z,17.61
2022-10-23T07:38:52.731Z,17.74
2022-10-23T07:43:52.851Z,17.91
2022-10-23T07:48:51.765Z,18.16
2022-10-23T07:53:50.502Z,18.32
2022-10-23T07:59:13.570Z,18.51
2022-10-23T08:04:15.303Z,18.57
2022-10-23T08:09:23.462Z,18.60
2022-10-23T08:14:23.951Z,18.78
2022-10-23T08:19:23.064Z,18.90
2022-10-23T08:24:24.609Z,19.27
2022-10-23T08:29:24.117Z,19.28
2022-10-23T08:34:25.336Z,19.29
2022-10-23T08:39:25.893Z,19.51
2022-10-23T08:44:50.866Z,19.71
2022-10-23T08:50:00.879Z,19.89
2022-10-23T08:55:23.118Z,19.91
2022-10-23T09:00:22.088Z,19.85
2022-10-23T09:05:37.267Z,19.98
2022-10-23T09:10:57.883Z,20.25
2022-10-23T09:16:08.592Z,20.34
2022-10-23T09:21:10.134Z,20.34
2022-10-23T09:26:17.829Z,20.48
2022-10-23T09:31:19.950Z,20.47
2022-10-23T09:36:23.584Z,20.69
2022-10-23T09:41:37.388Z,20.69
2022-10-23T09:46:41.680Z,21.01
2022-10-23T09:51:42.190Z,21.06
2022-10-23T09:57:05.092Z,21.09
2022-10-23T10:02:18.905Z,21.15
2022-10-23T10:07:41.883Z,21.32
2022-10-23T10:12:50.625Z,21.28
2022-10-23T10:18:09.422Z,21.23
2022-10-23T10:23:15.152Z,21.53
2022-10-23T10:28:40.581Z,21.85
2022-10-23T10:34:01.087Z,21.72
2022-10-23T10:39:04.716Z,21.76
2022-10-23T10:44:33.965Z,22.17
2022-10-23T10:49:54.322Z,22.05
2022-10-23T10:55:40.086Z,22.23
2022-10-23T11:00:49.050Z,22.26
2022-10-23T11:05:49.241Z,22.23
2022-10-23T11:10:53.740Z,22.37
2022-10-23T11:15:55.002Z,22.44
2022-10-23T11:21:08.600Z,22.80
2022-10-23T11:26:20.378Z,22.84
2022-10-23T11:31:39.516Z,22.88
2022-10-23T11:37:06.490Z,22.66
2022-10-23T11:42:06.881Z,22.99
2022-10-23T11:47:31.293Z,22.83
2022-10-23T11:52:31.106Z,22.81
2022-10-23T11:57:33.617Z,22.85
2022-10-23T12:02:37.848Z,22.89
2022-10-23T12:07:38.355Z,22.99
2022-10-23T12:12:41.104Z,23.07
2022-10-23T12:17:43.191Z,22.83
2022-10-23T12:23:23.211Z,23.15
2022-10-23T12:28:28.160Z,23.20
2022-10-23T12:33:35.761Z,23.01
2022-10-23T12:38:35.696Z,23.05
2022-10-23T12:43:36.823Z,22.97
2022-10-23T12:48:51.272Z,23.17
2022-10-23T12:53:52.194Z,23.32
2022-10-23T12:58:57.501Z,23.37
2022-10-23T13:09:30.699Z,23.51
2022-10-23T13:15:04.272Z,23.57
2022-10-23T13:20:19.238Z,23.46
2022-10-23T13:25:31.818Z,23.55
2022-10-23T13:30:38.137Z,23.50
2022-10-23T13:35:41.987Z,23.46
2022-10-23T13:40:55.576Z,23.62
2022-10-23T13:45:54.934Z,23.55
2022-10-23T13:50:53.538Z,23.54
2022-10-23T13:55:56.284Z,23.58
2022-10-23T14:00:58.659Z,23.62
2022-10-23T14:06:00.905Z,23.41
2022-10-23T14:11:02.892Z,23.47
2022-10-23T14:16:04.236Z,23.70
2022-10-23T14:21:05.616Z,23.38
2022-10-23T14:26:09.591Z,23.17
2022-10-23T14:31:13.198Z,23.06
2022-10-23T14:36:13.082Z,23.02
2022-10-23T14:41:13.439Z,22.80
2022-10-23T14:46:17.121Z,22.69
2022-10-23T14:51:26.993Z,22.57
2022-10-23T14:56:27.347Z,22.33
2022-10-23T15:01:48.923Z,22.26
2022-10-23T15:06:50.923Z,22.00
2022-10-23T15:11:52.283Z,21.79
2022-10-23T15:16:54.052Z,21.55
2022-10-23T15:21:52.718Z,21.30
2022-10-23T15:26:55.111Z,21.30
2022-10-23T15:32:09.821Z,20.88
2022-10-23T15:37:16.790Z,20.69
2022-10-23T15:42:19.380Z,20.87
2022-10-23T15:47:20.326Z,20.65
2022-10-23T15:52:19.763Z,20.43
2022-10-23T15:57:22.450Z,20.55
2022-10-23T16:02:24.334Z,20.21
2022-10-23T16:07:23.233Z,20.24
2022-10-23T16:12:22.694Z,20.22
2022-10-23T16:17:26.214Z,20.26
2022-10-23T16:22:31.881Z,20.17
2022-10-23T16:27:36.252Z,20.02
2022-10-23T16:32:35.666Z,19.92
2022-10-23T16:37:43.366Z,19.81
2022-10-23T16:42:54.705Z,19.76
2022-10-23T16:48:00.902Z,19.44
2022-10-23T16:53:06.664Z,19.27
2022-10-23T16:58:06.114Z,19.22
2022-10-23T17:03:06.153Z,19.05
2022-10-23T17:08:13.971Z,18.90
2022-10-23T17:13:16.455Z,18.77
2022-10-23T17:18:14.964Z,18.74
2022-10-23T17:23:14.015Z,18.58
2022-10-23T17:28:17.856Z,18.46
2022-10-23T17:33:16.071Z,18.68
2022-10-23T17:38:21.321Z,18.51
2022-10-23T17:43:21.200Z,18.48
2022-10-23T17:48:20.727Z,18.39
2022-10-23T17:53:22.144Z,18.45
2022-10-23T17:58:25.388Z,18.16
2022-10-23T18:03:26.407Z,18.27
2022-10-23T18:08:28.185Z,18.27
2022-10-23T18:13:26.877Z,18.11
2022-10-23T18:18:26.325Z,18.10
2022-10-23T18:23:29.209Z,18.15
2022-10-23T18:28:29.353Z,17.40
2022-10-23T18:33:29.017Z,17.43
2022-10-23T18:38:31.890Z,17.56
2022-10-23T18:43:48.885Z,17.61
2022-10-23T18:48:56.614Z,17.43
2022-10-23T18:53:57.396Z,17.18
2022-10-23T18:59:01.376Z,17.18
2022-10-23T19:04:03.935Z,17.25
2022-10-23T19:09:13.974Z,17.24
2022-10-23T19:14:31.478Z,17.19
2022-10-23T19:19:34.340Z,17.12
2022-10-23T19:24:58.348Z,17.17
2022-10-23T19:30:07.708Z,16.98
2022-10-23T19:35:30.713Z,16.97
2022-10-23T19:40:34.087Z,16.81
2022-10-23T19:45:46.565Z,16.68
2022-10-23T19:50:50.334Z,16.43
2022-10-23T19:55:55.525Z,16.26
2022-10-23T20:01:06.386Z,16.25
2022-10-23T20:06:14.786Z,16.11
2022-10-23T20:11:20.523Z,16.25
2022-10-23T20:16:45.434Z,16.01
2022-10-23T20:21:49.894Z,15.83
2022-10-23T20:26:55.926Z,15.56
2022-10-23T20:32:19.703Z,15.70
2022-10-23T20:37:27.457Z,15.85
2022-10-23T20:42:44.932Z,15.86
2022-10-23T20:53:24.555Z,15.49
2022-10-23T20:58:31.039Z,15.20
2022-10-23T21:03:33.130Z,15.34
2022-10-23T21:08:39.319Z,15.34
2022-10-23T21:13:38.893Z,15.33
2022-10-23T21:19:14.290Z,15.23
2022-10-23T21:24:22.221Z,15.19
2022-10-23T21:29:26.990Z,15.24
2022-10-23T21:34:26.268Z,15.08
2022-10-23T21:40:20.622Z,15.36
2022-10-23T21:45:45.267Z,15.39
2022-10-23T21:50:46.712Z,15.28
2022-10-23T21:55:47.731Z,14.80
2022-10-23T22:00:50.059Z,14.84
2022-10-23T22:06:12.814Z,14.68
2022-10-23T22:11:21.002Z,14.78
2022-10-23T22:16:53.089Z,14.47
2022-10-23T22:21:58.292Z,14.49
2022-10-23T22:26:58.270Z,14.84
2022-10-23T22:32:02.539Z,14.88
2022-10-23T22:37:05.708Z,14.69
2022-10-23T22:42:08.970Z,14.70
2022-10-23T22:47:17.479Z,14.68
2022-10-23T22:52:20.248Z,14.64
2022-10-23T22:57:32.971Z,14.70
2022-10-23T23:02:54.355Z,14.71
2022-10-23T23:08:28.404Z,14.70
2022-10-23T23:13:34.239Z,14.68
2022-10-23T23:18:36.419Z,14.43
2022-10-23T23:23:40.756Z,14.68
2022-10-23T23:28:42.522Z,14.24
2022-10-23T23:33:41.697Z,14.12
2022-10-23T23:38:41.270Z,14.02
2022-10-23T23:43:41.355Z,14.26
2022-10-23T23:48:50.425Z,13.92
2022-10-23T23:53:55.315Z,13.54
2022-10-23T23:59:01.105Z,13.20
